DLH290 EDDH-ESSA
Flight info
| Callsign | DLH290 |
|---|---|
| Flight time | 1h 15m |
| Altitude | 37000 |
| Route | LUGEG3G LUGEG P605 MEGAR DCT KUBIS DCT MIKNA N851 PELUP Z226 NILUG |
| Aircraft | A321/M-SDE3FGHIRWY/LB1 |
Departure
| Time | 2026-04-26 18:22 |
|---|---|
| Airport | Hamburg Helmut Schmidt Airport (EDDH) |
Arrival
| Time | 2026-04-26 19:37 |
|---|---|
| Airport | Stockholm-Arlanda Airport (ESSA) |
| Time | Latitude | Longitude | Altitude | Speed | Heading |
|---|---|---|---|---|---|
| 2026-04-26 18:01 | 53.63206 | 10.00362 | 49 ft | 0 kts | 86° |
| 2026-04-26 18:13 | 53.63206 | 10.00361 | 48 ft | 1 kts | 86° |
| 2026-04-26 18:13 | 53.63204 | 10.00320 | 48 ft | 4 kts | 83° |
| 2026-04-26 18:13 | 53.63202 | 10.00290 | 48 ft | 4 kts | 91° |
| 2026-04-26 18:14 | 53.63210 | 10.00241 | 47 ft | 4 kts | 126° |
| 2026-04-26 18:14 | 53.63229 | 10.00215 | 48 ft | 4 kts | 165° |
| 2026-04-26 18:14 | 53.63244 | 10.00210 | 48 ft | 0 kts | 176° |
| 2026-04-26 18:16 | 53.63243 | 10.00210 | 48 ft | 0 kts | 176° |
| 2026-04-26 18:17 | 53.63238 | 10.00213 | 48 ft | 2 kts | 164° |
| 2026-04-26 18:17 | 53.63220 | 10.00230 | 48 ft | 4 kts | 149° |
| 2026-04-26 18:17 | 53.63189 | 10.00249 | 48 ft | 5 kts | 171° |
| 2026-04-26 18:17 | 53.63146 | 10.00255 | 48 ft | 7 kts | 175° |
| 2026-04-26 18:18 | 53.63091 | 10.00261 | 48 ft | 9 kts | 180° |
| 2026-04-26 18:18 | 53.63031 | 10.00222 | 46 ft | 10 kts | 211° |
| 2026-04-26 18:18 | 53.62966 | 10.00152 | 46 ft | 12 kts | 213° |
| 2026-04-26 18:18 | 53.62897 | 10.00077 | 48 ft | 8 kts | 213° |
| 2026-04-26 18:19 | 53.62859 | 10.00007 | 46 ft | 8 kts | 243° |
| 2026-04-26 18:19 | 53.62850 | 9.99982 | 48 ft | 0 kts | 242° |
| 2026-04-26 18:19 | 53.62848 | 9.99973 | 48 ft | 2 kts | 242° |
| 2026-04-26 18:19 | 53.62835 | 9.99929 | 47 ft | 6 kts | 243° |
| 2026-04-26 18:20 | 53.62812 | 9.99840 | 45 ft | 10 kts | 263° |
| 2026-04-26 18:20 | 53.62843 | 9.99768 | 45 ft | 5 kts | 330° |
| 2026-04-26 18:20 | 53.62843 | 9.99767 | 45 ft | 0 kts | 331° |
| 2026-04-26 18:21 | 53.62904 | 9.99712 | 45 ft | 35 kts | 333° |
| 2026-04-26 18:21 | 53.63358 | 9.99321 | 44 ft | 110 kts | 333° |
| 2026-04-26 18:21 | 53.64222 | 9.98573 | 57 ft | 166 kts | 334° |
| 2026-04-26 18:21 | 53.65303 | 9.97677 | 583 ft | 177 kts | 333° |
| 2026-04-26 18:22 | 53.66392 | 9.96751 | 1385 ft | 175 kts | 332° |
| 2026-04-26 18:22 | 53.67516 | 9.95775 | 1790 ft | 191 kts | 331° |
| 2026-04-26 18:22 | 53.68785 | 9.94828 | 2173 ft | 206 kts | 344° |
| 2026-04-26 18:22 | 53.70235 | 9.94669 | 2734 ft | 213 kts | 358° |
| 2026-04-26 18:23 | 53.71723 | 9.94700 | 3389 ft | 215 kts | 2° |
| 2026-04-26 18:23 | 53.73163 | 9.95470 | 4002 ft | 223 kts | 30° |
| 2026-04-26 18:23 | 53.74266 | 9.97347 | 4629 ft | 230 kts | 58° |
| 2026-04-26 18:23 | 53.74990 | 9.99783 | 5289 ft | 233 kts | 63° |
| 2026-04-26 18:24 | 53.75703 | 10.02261 | 5931 ft | 236 kts | 63° |
| 2026-04-26 18:24 | 53.76428 | 10.04776 | 6500 ft | 244 kts | 63° |
| 2026-04-26 18:24 | 53.77201 | 10.07458 | 6768 ft | 263 kts | 63° |
| 2026-04-26 18:24 | 53.78033 | 10.10345 | 7115 ft | 282 kts | 63° |
| 2026-04-26 18:25 | 53.78901 | 10.13366 | 7780 ft | 288 kts | 63° |
| 2026-04-26 18:25 | 53.79781 | 10.16439 | 8511 ft | 292 kts | 63° |
| 2026-04-26 18:25 | 53.80676 | 10.19562 | 9225 ft | 296 kts | 62° |
| 2026-04-26 18:25 | 53.81580 | 10.22719 | 9937 ft | 300 kts | 62° |
| 2026-04-26 18:26 | 53.82497 | 10.25927 | 10540 ft | 309 kts | 61° |
| 2026-04-26 18:26 | 53.83465 | 10.29317 | 10709 ft | 331 kts | 61° |
| 2026-04-26 18:26 | 53.84504 | 10.32940 | 10899 ft | 350 kts | 61° |
| 2026-04-26 18:26 | 53.85561 | 10.36644 | 11408 ft | 357 kts | 61° |
| 2026-04-26 18:27 | 53.86647 | 10.40469 | 12038 ft | 360 kts | 61° |
| 2026-04-26 18:27 | 53.87733 | 10.44308 | 12701 ft | 362 kts | 60° |
| 2026-04-26 18:27 | 53.88831 | 10.48181 | 13301 ft | 366 kts | 60° |
| 2026-04-26 18:27 | 53.89936 | 10.52090 | 13877 ft | 370 kts | 60° |
| 2026-04-26 18:28 | 53.91052 | 10.56042 | 14436 ft | 373 kts | 60° |
| 2026-04-26 18:28 | 53.92179 | 10.60038 | 15002 ft | 377 kts | 60° |
| 2026-04-26 18:28 | 53.93326 | 10.64061 | 15545 ft | 380 kts | 58° |
| 2026-04-26 18:28 | 53.94746 | 10.67833 | 16073 ft | 379 kts | 47° |
| 2026-04-26 18:29 | 53.96501 | 10.71173 | 16591 ft | 380 kts | 42° |
| 2026-04-26 18:29 | 53.98312 | 10.74438 | 17126 ft | 383 kts | 42° |
| 2026-04-26 18:29 | 54.00142 | 10.77760 | 17634 ft | 387 kts | 42° |
| 2026-04-26 18:29 | 54.01967 | 10.81079 | 18152 ft | 389 kts | 42° |
| 2026-04-26 18:30 | 54.03816 | 10.84448 | 18661 ft | 392 kts | 42° |
| 2026-04-26 18:30 | 54.05690 | 10.87872 | 19155 ft | 395 kts | 42° |
| 2026-04-26 18:30 | 54.07570 | 10.91325 | 19626 ft | 398 kts | 42° |
| 2026-04-26 18:30 | 54.09458 | 10.94797 | 20074 ft | 401 kts | 42° |
| 2026-04-26 18:31 | 54.11359 | 10.98292 | 20535 ft | 403 kts | 42° |
| 2026-04-26 18:31 | 54.13273 | 11.01814 | 20976 ft | 406 kts | 42° |
| 2026-04-26 18:31 | 54.15198 | 11.05367 | 21402 ft | 410 kts | 42° |
| 2026-04-26 18:31 | 54.17142 | 11.08967 | 21822 ft | 412 kts | 42° |
| 2026-04-26 18:32 | 54.19087 | 11.12580 | 22235 ft | 415 kts | 42° |
| 2026-04-26 18:32 | 54.21048 | 11.16231 | 22641 ft | 418 kts | 42° |
| 2026-04-26 18:32 | 54.22992 | 11.19857 | 23041 ft | 420 kts | 42° |
| 2026-04-26 18:32 | 54.24972 | 11.23563 | 23412 ft | 423 kts | 42° |
| 2026-04-26 18:33 | 54.26961 | 11.27299 | 23788 ft | 426 kts | 43° |
| 2026-04-26 18:33 | 54.28959 | 11.31061 | 24159 ft | 429 kts | 42° |
| 2026-04-26 18:33 | 54.30978 | 11.34861 | 24544 ft | 431 kts | 42° |
| 2026-04-26 18:33 | 54.32999 | 11.38668 | 24912 ft | 434 kts | 42° |
| 2026-04-26 18:34 | 54.35036 | 11.42513 | 25274 ft | 436 kts | 42° |
| 2026-04-26 18:34 | 54.37076 | 11.46367 | 25629 ft | 438 kts | 42° |
| 2026-04-26 18:34 | 54.39133 | 11.50251 | 25987 ft | 440 kts | 42° |
| 2026-04-26 18:34 | 54.41196 | 11.54145 | 26331 ft | 442 kts | 43° |
| 2026-04-26 18:35 | 54.43274 | 11.58075 | 26669 ft | 444 kts | 43° |
| 2026-04-26 18:35 | 54.45358 | 11.61996 | 27016 ft | 445 kts | 40° |
| 2026-04-26 18:35 | 54.47623 | 11.65495 | 27340 ft | 441 kts | 32° |
| 2026-04-26 18:35 | 54.50152 | 11.68428 | 27656 ft | 438 kts | 26° |
| 2026-04-26 18:36 | 54.52745 | 11.71220 | 27979 ft | 440 kts | 26° |
| 2026-04-26 18:36 | 54.55346 | 11.74023 | 28304 ft | 442 kts | 26° |
| 2026-04-26 18:36 | 54.57959 | 11.76849 | 28612 ft | 444 kts | 27° |
| 2026-04-26 18:36 | 54.60576 | 11.79692 | 28911 ft | 446 kts | 27° |
| 2026-04-26 18:37 | 54.63204 | 11.82553 | 29191 ft | 447 kts | 27° |
| 2026-04-26 18:37 | 54.65843 | 11.85431 | 29473 ft | 449 kts | 27° |
| 2026-04-26 18:37 | 54.68497 | 11.88332 | 29761 ft | 450 kts | 27° |
| 2026-04-26 18:37 | 54.71143 | 11.91233 | 30020 ft | 451 kts | 27° |
| 2026-04-26 18:38 | 54.73763 | 11.94111 | 30244 ft | 453 kts | 27° |
| 2026-04-26 18:38 | 54.76427 | 11.97040 | 30499 ft | 454 kts | 27° |
| 2026-04-26 18:38 | 54.79087 | 11.99972 | 30820 ft | 452 kts | 27° |
| 2026-04-26 18:38 | 54.81740 | 12.02904 | 31125 ft | 452 kts | 27° |
| 2026-04-26 18:39 | 54.84387 | 12.05832 | 31435 ft | 451 kts | 27° |
| 2026-04-26 18:39 | 54.87027 | 12.08755 | 31721 ft | 450 kts | 27° |
| 2026-04-26 18:39 | 54.89670 | 12.11679 | 32011 ft | 449 kts | 27° |
| 2026-04-26 18:39 | 54.92304 | 12.14588 | 32295 ft | 449 kts | 26° |
| 2026-04-26 18:40 | 54.94939 | 12.17501 | 32578 ft | 448 kts | 27° |
| 2026-04-26 18:40 | 54.97569 | 12.20419 | 32856 ft | 448 kts | 27° |
| 2026-04-26 18:40 | 55.00194 | 12.23342 | 33141 ft | 447 kts | 26° |
| 2026-04-26 18:40 | 55.02811 | 12.26266 | 33399 ft | 446 kts | 27° |
| 2026-04-26 18:41 | 55.05420 | 12.29184 | 33661 ft | 446 kts | 26° |
| 2026-04-26 18:41 | 55.08031 | 12.32101 | 33916 ft | 445 kts | 26° |
| 2026-04-26 18:41 | 55.10641 | 12.35021 | 34170 ft | 445 kts | 26° |
| 2026-04-26 18:41 | 55.13205 | 12.37900 | 34425 ft | 444 kts | 27° |
| 2026-04-26 18:42 | 55.15800 | 12.40821 | 34670 ft | 444 kts | 27° |
| 2026-04-26 18:42 | 55.18393 | 12.43747 | 34920 ft | 443 kts | 27° |
| 2026-04-26 18:42 | 55.20983 | 12.46672 | 35149 ft | 442 kts | 27° |
| 2026-04-26 18:42 | 55.23563 | 12.49604 | 35373 ft | 443 kts | 27° |
| 2026-04-26 18:43 | 55.26134 | 12.52580 | 35603 ft | 442 kts | 27° |
| 2026-04-26 18:43 | 55.28688 | 12.55585 | 35840 ft | 442 kts | 28° |
| 2026-04-26 18:43 | 55.31231 | 12.58602 | 36069 ft | 441 kts | 28° |
| 2026-04-26 18:43 | 55.33769 | 12.61622 | 36273 ft | 441 kts | 28° |
| 2026-04-26 18:44 | 55.36320 | 12.64662 | 36466 ft | 441 kts | 28° |
| 2026-04-26 18:44 | 55.38860 | 12.67691 | 36647 ft | 441 kts | 28° |
| 2026-04-26 18:44 | 55.41402 | 12.70719 | 36862 ft | 441 kts | 28° |
| 2026-04-26 18:44 | 55.43937 | 12.73738 | 37135 ft | 438 kts | 28° |
| 2026-04-26 18:45 | 55.46461 | 12.76741 | 37255 ft | 436 kts | 28° |
| 2026-04-26 18:45 | 55.48968 | 12.79732 | 37276 ft | 433 kts | 28° |
| 2026-04-26 18:45 | 55.53926 | 12.85657 | 37274 ft | 432 kts | 28° |
| 2026-04-26 18:46 | 55.58901 | 12.91617 | 37275 ft | 432 kts | 28° |
| 2026-04-26 18:46 | 55.63864 | 12.97580 | 37274 ft | 427 kts | 28° |
| 2026-04-26 18:47 | 55.68737 | 13.03461 | 37267 ft | 425 kts | 28° |
| 2026-04-26 18:47 | 55.73641 | 13.09386 | 37260 ft | 428 kts | 28° |
| 2026-04-26 18:48 | 55.78550 | 13.15335 | 37247 ft | 425 kts | 28° |
| 2026-04-26 18:48 | 55.83412 | 13.21221 | 37240 ft | 422 kts | 28° |
| 2026-04-26 18:49 | 55.88239 | 13.27108 | 37235 ft | 419 kts | 28° |
| 2026-04-26 18:49 | 55.93030 | 13.32992 | 37277 ft | 416 kts | 28° |
| 2026-04-26 18:50 | 55.97791 | 13.38842 | 37275 ft | 415 kts | 28° |
| 2026-04-26 18:50 | 56.02599 | 13.44784 | 37276 ft | 425 kts | 28° |
| 2026-04-26 18:51 | 56.07449 | 13.50815 | 37266 ft | 428 kts | 28° |
| 2026-04-26 18:51 | 56.12346 | 13.56899 | 37265 ft | 428 kts | 28° |
| 2026-04-26 18:52 | 56.16449 | 13.61994 | 37266 ft | 428 kts | 28° |
| 2026-04-26 18:52 | 56.22136 | 13.69090 | 37268 ft | 428 kts | 28° |
| 2026-04-26 18:53 | 56.27037 | 13.75231 | 37275 ft | 429 kts | 28° |
| 2026-04-26 18:53 | 56.31074 | 13.80458 | 37279 ft | 432 kts | 31° |
| 2026-04-26 18:54 | 56.35746 | 13.87345 | 37276 ft | 435 kts | 34° |
| 2026-04-26 18:54 | 56.40338 | 13.94472 | 37277 ft | 435 kts | 34° |
| 2026-04-26 18:55 | 56.44935 | 14.01474 | 37277 ft | 434 kts | 33° |
| 2026-04-26 18:55 | 56.49589 | 14.08434 | 37277 ft | 433 kts | 33° |
| 2026-04-26 18:56 | 56.54241 | 14.15383 | 37238 ft | 432 kts | 33° |
| 2026-04-26 18:56 | 56.58858 | 14.22348 | 37236 ft | 432 kts | 33° |
| 2026-04-26 18:57 | 56.62698 | 14.28183 | 37230 ft | 432 kts | 33° |
| 2026-04-26 18:57 | 56.68064 | 14.36322 | 37233 ft | 432 kts | 33° |
| 2026-04-26 18:58 | 56.72678 | 14.43341 | 37226 ft | 432 kts | 33° |
| 2026-04-26 18:58 | 56.77287 | 14.50385 | 37226 ft | 432 kts | 33° |
| 2026-04-26 18:59 | 56.81882 | 14.57449 | 37219 ft | 432 kts | 33° |
| 2026-04-26 18:59 | 56.86483 | 14.64542 | 37218 ft | 432 kts | 33° |
| 2026-04-26 19:00 | 56.91072 | 14.71628 | 37216 ft | 432 kts | 33° |
| 2026-04-26 19:00 | 56.95652 | 14.78736 | 37215 ft | 431 kts | 33° |
| 2026-04-26 19:01 | 57.00199 | 14.85814 | 37214 ft | 431 kts | 33° |
| 2026-04-26 19:01 | 57.04771 | 14.92942 | 37215 ft | 431 kts | 33° |
| 2026-04-26 19:02 | 57.09331 | 15.00082 | 37227 ft | 430 kts | 33° |
| 2026-04-26 19:02 | 57.13119 | 15.06035 | 37231 ft | 431 kts | 33° |
| 2026-04-26 19:03 | 57.18445 | 15.14437 | 37244 ft | 430 kts | 33° |
| 2026-04-26 19:03 | 57.22995 | 15.21636 | 37245 ft | 431 kts | 33° |
| 2026-04-26 19:04 | 57.27533 | 15.28851 | 37246 ft | 430 kts | 33° |
| 2026-04-26 19:04 | 57.32049 | 15.36045 | 37236 ft | 430 kts | 33° |
| 2026-04-26 19:05 | 57.38837 | 15.46887 | 37231 ft | 429 kts | 33° |
| 2026-04-26 19:06 | 57.43362 | 15.54144 | 37230 ft | 429 kts | 33° |
| 2026-04-26 19:06 | 57.47872 | 15.61402 | 37223 ft | 429 kts | 33° |
| 2026-04-26 19:07 | 57.52370 | 15.68688 | 37123 ft | 429 kts | 33° |
| 2026-04-26 19:07 | 57.54608 | 15.72328 | 36868 ft | 426 kts | 33° |
| 2026-04-26 19:07 | 57.56843 | 15.75964 | 36618 ft | 424 kts | 33° |
| 2026-04-26 19:07 | 57.59060 | 15.79570 | 36368 ft | 423 kts | 33° |
| 2026-04-26 19:08 | 57.61282 | 15.83181 | 36112 ft | 423 kts | 33° |
| 2026-04-26 19:08 | 57.63508 | 15.86804 | 35858 ft | 425 kts | 33° |
| 2026-04-26 19:08 | 57.65710 | 15.90396 | 35631 ft | 427 kts | 33° |
| 2026-04-26 19:08 | 57.67977 | 15.94108 | 35371 ft | 428 kts | 32° |
| 2026-04-26 19:09 | 57.70211 | 15.97783 | 35119 ft | 428 kts | 32° |
| 2026-04-26 19:09 | 57.72441 | 16.01460 | 34868 ft | 427 kts | 32° |
| 2026-04-26 19:09 | 57.74664 | 16.05129 | 34618 ft | 425 kts | 32° |
| 2026-04-26 19:09 | 57.76880 | 16.08792 | 34366 ft | 425 kts | 32° |
| 2026-04-26 19:10 | 57.79092 | 16.12451 | 34116 ft | 424 kts | 32° |
| 2026-04-26 19:10 | 57.81272 | 16.16056 | 33870 ft | 423 kts | 32° |
| 2026-04-26 19:10 | 57.83481 | 16.19704 | 33623 ft | 423 kts | 32° |
| 2026-04-26 19:10 | 57.85690 | 16.23352 | 33372 ft | 423 kts | 32° |
| 2026-04-26 19:11 | 57.87903 | 16.27015 | 33122 ft | 424 kts | 32° |
| 2026-04-26 19:11 | 57.90120 | 16.30699 | 32870 ft | 425 kts | 32° |
| 2026-04-26 19:11 | 57.92342 | 16.34400 | 32613 ft | 426 kts | 32° |
| 2026-04-26 19:11 | 57.94560 | 16.38098 | 32369 ft | 427 kts | 32° |
| 2026-04-26 19:12 | 57.96784 | 16.41811 | 32120 ft | 427 kts | 32° |
| 2026-04-26 19:12 | 57.99012 | 16.45530 | 31872 ft | 428 kts | 32° |
| 2026-04-26 19:12 | 58.01244 | 16.49262 | 31615 ft | 429 kts | 32° |
| 2026-04-26 19:12 | 58.03469 | 16.53000 | 31367 ft | 427 kts | 32° |
| 2026-04-26 19:13 | 58.05686 | 16.56735 | 31115 ft | 425 kts | 32° |
| 2026-04-26 19:13 | 58.07886 | 16.60447 | 30862 ft | 423 kts | 32° |
| 2026-04-26 19:13 | 58.10081 | 16.64153 | 30612 ft | 423 kts | 32° |
| 2026-04-26 19:13 | 58.12273 | 16.67862 | 30361 ft | 421 kts | 32° |
| 2026-04-26 19:14 | 58.14420 | 16.71501 | 30120 ft | 419 kts | 32° |
| 2026-04-26 19:14 | 58.16584 | 16.75176 | 29864 ft | 417 kts | 33° |
| 2026-04-26 19:14 | 58.18741 | 16.78851 | 29615 ft | 415 kts | 33° |
| 2026-04-26 19:14 | 58.20186 | 16.81318 | 29445 ft | 414 kts | 33° |
| 2026-04-26 19:15 | 58.23013 | 16.86147 | 29113 ft | 411 kts | 33° |
| 2026-04-26 19:15 | 58.25139 | 16.89771 | 28862 ft | 410 kts | 33° |
| 2026-04-26 19:15 | 58.27261 | 16.93395 | 28611 ft | 408 kts | 33° |
| 2026-04-26 19:15 | 58.29365 | 16.96999 | 28364 ft | 407 kts | 33° |
| 2026-04-26 19:16 | 58.31466 | 17.00602 | 28110 ft | 405 kts | 33° |
| 2026-04-26 19:16 | 58.33551 | 17.04184 | 27774 ft | 401 kts | 33° |
| 2026-04-26 19:16 | 58.35607 | 17.07731 | 27238 ft | 395 kts | 33° |
| 2026-04-26 19:16 | 58.37629 | 17.11225 | 26683 ft | 391 kts | 33° |
| 2026-04-26 19:17 | 58.39628 | 17.14688 | 26154 ft | 386 kts | 33° |
| 2026-04-26 19:17 | 58.41604 | 17.18115 | 25621 ft | 381 kts | 33° |
| 2026-04-26 19:17 | 58.43529 | 17.21457 | 25112 ft | 377 kts | 32° |
| 2026-04-26 19:17 | 58.45452 | 17.24799 | 24612 ft | 372 kts | 32° |
| 2026-04-26 19:18 | 58.47353 | 17.28106 | 24119 ft | 366 kts | 32° |
| 2026-04-26 19:18 | 58.49224 | 17.31362 | 23651 ft | 361 kts | 32° |
| 2026-04-26 19:18 | 58.51073 | 17.34585 | 23179 ft | 357 kts | 32° |
| 2026-04-26 19:18 | 58.52894 | 17.37761 | 22729 ft | 352 kts | 32° |
| 2026-04-26 19:19 | 58.54692 | 17.40902 | 22294 ft | 347 kts | 32° |
| 2026-04-26 19:19 | 58.56458 | 17.43995 | 21854 ft | 341 kts | 32° |
| 2026-04-26 19:19 | 58.58196 | 17.47045 | 21446 ft | 336 kts | 32° |
| 2026-04-26 19:19 | 58.59903 | 17.50045 | 21037 ft | 332 kts | 32° |
| 2026-04-26 19:20 | 58.61606 | 17.53034 | 20604 ft | 330 kts | 32° |
| 2026-04-26 19:20 | 58.62724 | 17.54996 | 20323 ft | 328 kts | 32° |
| 2026-04-26 19:20 | 58.64969 | 17.58944 | 19743 ft | 325 kts | 32° |
| 2026-04-26 19:20 | 58.66630 | 17.61878 | 19308 ft | 322 kts | 32° |
| 2026-04-26 19:21 | 58.68271 | 17.64786 | 18870 ft | 320 kts | 32° |
| 2026-04-26 19:21 | 58.69881 | 17.67645 | 18426 ft | 318 kts | 32° |
| 2026-04-26 19:21 | 58.71501 | 17.70519 | 17984 ft | 315 kts | 32° |
| 2026-04-26 19:21 | 58.73104 | 17.73368 | 17530 ft | 313 kts | 33° |
| 2026-04-26 19:22 | 58.74695 | 17.76201 | 17084 ft | 311 kts | 33° |
| 2026-04-26 19:22 | 58.76278 | 17.79019 | 16633 ft | 309 kts | 33° |
| 2026-04-26 19:22 | 58.77859 | 17.81832 | 16174 ft | 308 kts | 33° |
| 2026-04-26 19:22 | 58.79424 | 17.84625 | 15740 ft | 306 kts | 33° |
| 2026-04-26 19:23 | 58.81000 | 17.87367 | 15287 ft | 301 kts | 30° |
| 2026-04-26 19:23 | 58.82717 | 17.89539 | 14939 ft | 295 kts | 20° |
| 2026-04-26 19:23 | 58.84632 | 17.91310 | 14706 ft | 311 kts | 18° |
| 2026-04-26 19:23 | 58.86594 | 17.93131 | 14438 ft | 314 kts | 19° |
| 2026-04-26 19:24 | 58.88556 | 17.94983 | 14165 ft | 314 kts | 19° |
| 2026-04-26 19:24 | 58.90526 | 17.96859 | 13886 ft | 314 kts | 20° |
| 2026-04-26 19:24 | 58.94587 | 17.98686 | 13267 ft | 296 kts | 350° |
| 2026-04-26 19:25 | 58.96627 | 17.98089 | 12963 ft | 296 kts | 348° |
| 2026-04-26 19:25 | 58.97292 | 17.97886 | 12852 ft | 296 kts | 348° |
| 2026-04-26 19:25 | 59.00624 | 17.96946 | 12213 ft | 285 kts | 348° |
| 2026-04-26 19:25 | 59.02532 | 17.96322 | 11790 ft | 272 kts | 348° |
| 2026-04-26 19:26 | 59.04367 | 17.95709 | 11342 ft | 261 kts | 348° |
| 2026-04-26 19:26 | 59.06132 | 17.95127 | 10893 ft | 254 kts | 348° |
| 2026-04-26 19:26 | 59.07864 | 17.94555 | 10445 ft | 252 kts | 348° |
| 2026-04-26 19:26 | 59.09598 | 17.93977 | 10025 ft | 252 kts | 348° |
| 2026-04-26 19:27 | 59.11325 | 17.93403 | 9645 ft | 251 kts | 348° |
| 2026-04-26 19:27 | 59.13045 | 17.92825 | 9269 ft | 251 kts | 348° |
| 2026-04-26 19:27 | 59.14765 | 17.92245 | 8889 ft | 251 kts | 348° |
| 2026-04-26 19:27 | 59.16481 | 17.91662 | 8511 ft | 250 kts | 348° |
| 2026-04-26 19:28 | 59.18187 | 17.91075 | 8136 ft | 248 kts | 348° |
| 2026-04-26 19:28 | 59.19881 | 17.90489 | 7755 ft | 246 kts | 348° |
| 2026-04-26 19:28 | 59.21565 | 17.89902 | 7395 ft | 245 kts | 348° |
| 2026-04-26 19:28 | 59.23240 | 17.89316 | 7039 ft | 244 kts | 348° |
| 2026-04-26 19:29 | 59.24903 | 17.88731 | 6691 ft | 240 kts | 348° |
| 2026-04-26 19:29 | 59.26526 | 17.88156 | 6334 ft | 234 kts | 348° |
| 2026-04-26 19:29 | 59.28096 | 17.87604 | 5918 ft | 230 kts | 348° |
| 2026-04-26 19:29 | 59.29656 | 17.87050 | 5493 ft | 225 kts | 347° |
| 2026-04-26 19:30 | 59.31183 | 17.86507 | 5055 ft | 220 kts | 348° |
| 2026-04-26 19:30 | 59.32642 | 17.85996 | 4794 ft | 206 kts | 348° |
| 2026-04-26 19:30 | 59.34011 | 17.85521 | 4537 ft | 195 kts | 348° |
| 2026-04-26 19:30 | 59.34906 | 17.85390 | 4360 ft | 196 kts | 358° |
| 2026-04-26 19:31 | 59.36714 | 17.85794 | 4082 ft | 195 kts | 5° |
| 2026-04-26 19:31 | 59.38056 | 17.86245 | 3996 ft | 192 kts | 5° |
| 2026-04-26 19:31 | 59.39288 | 17.86685 | 3992 ft | 170 kts | 5° |
| 2026-04-26 19:31 | 59.40432 | 17.87090 | 4008 ft | 166 kts | 5° |
| 2026-04-26 19:32 | 59.41565 | 17.87493 | 4007 ft | 165 kts | 6° |
| 2026-04-26 19:32 | 59.42692 | 17.87895 | 3971 ft | 165 kts | 5° |
| 2026-04-26 19:32 | 59.43818 | 17.88297 | 3820 ft | 164 kts | 5° |
| 2026-04-26 19:32 | 59.44942 | 17.88700 | 3625 ft | 163 kts | 5° |
| 2026-04-26 19:33 | 59.46054 | 17.89100 | 3417 ft | 162 kts | 5° |
| 2026-04-26 19:33 | 59.47167 | 17.89497 | 3201 ft | 163 kts | 5° |
| 2026-04-26 19:33 | 59.48280 | 17.89896 | 2986 ft | 162 kts | 5° |
| 2026-04-26 19:33 | 59.49389 | 17.90294 | 2774 ft | 163 kts | 5° |
| 2026-04-26 19:34 | 59.50510 | 17.90696 | 2557 ft | 164 kts | 6° |
| 2026-04-26 19:34 | 59.51619 | 17.91095 | 2340 ft | 165 kts | 6° |
| 2026-04-26 19:34 | 59.52748 | 17.91502 | 2119 ft | 162 kts | 7° |
| 2026-04-26 19:34 | 59.53830 | 17.91893 | 1903 ft | 154 kts | 7° |
| 2026-04-26 19:35 | 59.54839 | 17.92259 | 1716 ft | 141 kts | 6° |
| 2026-04-26 19:35 | 59.55778 | 17.92608 | 1537 ft | 135 kts | 7° |
| 2026-04-26 19:35 | 59.56675 | 17.92963 | 1368 ft | 132 kts | 6° |
| 2026-04-26 19:35 | 59.57581 | 17.93264 | 1159 ft | 132 kts | 7° |
| 2026-04-26 19:36 | 59.58485 | 17.93585 | 990 ft | 132 kts | 8° |
| 2026-04-26 19:36 | 59.58789 | 17.93705 | 929 ft | 132 kts | 9° |
| 2026-04-26 19:36 | 59.60264 | 17.94228 | 683 ft | 132 kts | 8° |
| 2026-04-26 19:36 | 59.60866 | 17.94451 | 548 ft | 132 kts | 8° |
| 2026-04-26 19:37 | 59.61773 | 17.94788 | 366 ft | 133 kts | 7° |
| 2026-04-26 19:37 | 59.62974 | 17.95209 | 150 ft | 130 kts | 8° |
| 2026-04-26 19:37 | 59.63533 | 17.95404 | 121 ft | 108 kts | 11° |
| 2026-04-26 19:37 | 59.64169 | 17.95638 | 112 ft | 40 kts | 8° |
| 2026-04-26 19:38 | 59.64329 | 17.95689 | 112 ft | 27 kts | 9° |
| 2026-04-26 19:38 | 59.64518 | 17.95680 | 108 ft | 28 kts | 346° |
| 2026-04-26 19:38 | 59.64631 | 17.95604 | 108 ft | 6 kts | 340° |
| 2026-04-26 19:38 | 59.64635 | 17.95601 | 107 ft | 0 kts | 340° |
| 2026-04-26 19:39 | 59.64636 | 17.95601 | 108 ft | 1 kts | 340° |
| 2026-04-26 19:39 | 59.64652 | 17.95589 | 107 ft | 4 kts | 340° |
| 2026-04-26 19:39 | 59.64689 | 17.95563 | 106 ft | 7 kts | 340° |
| 2026-04-26 19:40 | 59.64745 | 17.95522 | 106 ft | 10 kts | 340° |
| 2026-04-26 19:40 | 59.64819 | 17.95477 | 107 ft | 12 kts | 351° |
| 2026-04-26 19:40 | 59.64904 | 17.95489 | 109 ft | 12 kts | 9° |
| 2026-04-26 19:40 | 59.64984 | 17.95515 | 112 ft | 11 kts | 9° |
| 2026-04-26 19:41 | 59.65057 | 17.95508 | 112 ft | 10 kts | 347° |
| 2026-04-26 19:41 | 59.65122 | 17.95475 | 116 ft | 9 kts | 345° |
| 2026-04-26 19:41 | 59.65179 | 17.95445 | 119 ft | 9 kts | 345° |
| 2026-04-26 19:41 | 59.65218 | 17.95424 | 121 ft | 9 kts | 345° |
| 2026-04-26 19:42 | 59.65315 | 17.95373 | 127 ft | 13 kts | 345° |
| 2026-04-26 19:42 | 59.65401 | 17.95327 | 127 ft | 13 kts | 345° |
| 2026-04-26 19:42 | 59.65496 | 17.95277 | 127 ft | 15 kts | 345° |
| 2026-04-26 19:42 | 59.65604 | 17.95220 | 125 ft | 17 kts | 344° |
| 2026-04-26 19:43 | 59.65701 | 17.95167 | 125 ft | 13 kts | 345° |
| 2026-04-26 19:43 | 59.65747 | 17.95012 | 124 ft | 16 kts | 264° |
| 2026-04-26 19:43 | 59.65723 | 17.94771 | 124 ft | 19 kts | 253° |
| 2026-04-26 19:43 | 59.65685 | 17.94509 | 124 ft | 21 kts | 256° |
| 2026-04-26 19:44 | 59.65650 | 17.94235 | 123 ft | 19 kts | 256° |
| 2026-04-26 19:44 | 59.65615 | 17.93957 | 114 ft | 24 kts | 256° |
| 2026-04-26 19:44 | 59.65572 | 17.93608 | 113 ft | 27 kts | 256° |
| 2026-04-26 19:44 | 59.65534 | 17.93312 | 112 ft | 18 kts | 257° |
| 2026-04-26 19:45 | 59.65507 | 17.93102 | 112 ft | 12 kts | 255° |
| 2026-04-26 19:45 | 59.65486 | 17.92982 | 112 ft | 7 kts | 238° |
| 2026-04-26 19:45 | 59.65440 | 17.92956 | 112 ft | 7 kts | 187° |
| 2026-04-26 19:45 | 59.65406 | 17.92897 | 112 ft | 1 kts | 216° |
| 2026-04-26 19:46 | 59.65398 | 17.92892 | 110 ft | 1 kts | 188° |
| 2026-04-26 19:46 | 59.65392 | 17.92906 | 112 ft | 2 kts | 138° |
| 2026-04-26 19:46 | 59.65376 | 17.92933 | 112 ft | 4 kts | 139° |
| 2026-04-26 19:46 | 59.65369 | 17.92947 | 112 ft | 1 kts | 138° |